Airfield :
LOGIN :

Register | Disclaimer

   EN    FR    IT 

 










Legend :    VFR   Marginal VFR   IFR   Intensive IFR   Very Intensive IFR
Visi :
Ceiling :
>= 8 km
>= 3000ft
5 to 8 km
1000 to 3000 ft
1500m to 5 km
500 to 1000 ft
800 to 1500m
200 to 500 ft
< 800m
< 200 ft
Symbols :   Thunderstorms  Fog  Heavy snow  Heavy precipitations  Wind > 20 kt
SIGMETs :     Misc.  Thunderstorms  Icing  Turbulence  Mountain Waves  Volcanic Ashes






- Airport Elevation : 121 ft
- IATA code : HUY


EGNJ - Humberside

CURRENT METAR :
  • 230720Z VRB02KT 9999 SCT011 BKN030 08/08 Q1005

EXPIRED METARs :
  • 230650Z 24004KT 9000 -RA FEW016 SCT032 08/07 Q1005
  • 230620Z AUTO 19003KT 9999 FEW022/// BKN033/// OVC040/// 08/07 Q1005 RERA
  • 230550Z AUTO 19004KT 9999 SCT023/// BKN033/// OVC039/// 08/06 Q1006
  • 230520Z AUTO 18004KT 9999 SCT023/// OVC041/// 07/06 Q1006 RERA
  • 230450Z AUTO 20004KT 9999 BKN024/// OVC046/// 07/06 Q1006

TAF TAF EGNJ
Valid from the 23 at 06:00 until the 23 at 15:00 UTC


230457Z 2306/2315 20005KT 9999 SCT030
PROB40
TEMPO 2306/2309 6000 RA BKN012
TEMPO 2312/2315 7000 RA BKN012
ATIS : +44 1652 682 020



MET'MAP, your aeronautical weather chart ! - Copyright ORBIFLY December 2007 - Disclaimer

ORBIFLY MET'MAP TEAM :

Programming & Development : Alexandra Zaïnal
Concept & original design : Baudouin d'Aumeries
Assistance for programming : Marc-Olivier Méhu
Technical & hardware support : Manuel Goepfert

Contact : metmap@orbifly.com




SOURCES & CREDITS :

   NOAA